Airfield :
LOGIN :

Register | Disclaimer

   EN    FR    IT 

 










Legend :    VFR   Marginal VFR   IFR   Intensive IFR   Very Intensive IFR
Visi :
Ceiling :
>= 8 km
>= 3000ft
5 to 8 km
1000 to 3000 ft
1500m to 5 km
500 to 1000 ft
800 to 1500m
200 to 500 ft
< 800m
< 200 ft
Symbols :   Thunderstorms  Fog  Heavy snow  Heavy precipitations  Wind > 20 kt
SIGMETs :     Misc.  Thunderstorms  Icing  Turbulence  Mountain Waves  Volcanic Ashes






- Airport Elevation : 1000 ft
- IATA code : PEV


LHPP - Pécs Pogany

CURRENT METAR :
  • 131045Z 17009KT CAVOK 29/14 Q1017

EXPIRED METARs :
  • 131015Z 17009KT CAVOK 29/15 Q1017
  • 130945Z 16008KT CAVOK 29/14 Q1017
  • 130915Z 14008KT CAVOK 28/15 Q1018
  • 130845Z 14007KT CAVOK 28/16 Q1018
  • 130815Z 16005KT CAVOK 27/16 Q1018

TAF TAF LHPP
Valid from the 13 at 09:00 until the 13 at 18:00 UTC


130815Z 1309/1318 10004KT CAVOK
BECMG 1309/1312 17007KT



MET'MAP, your aeronautical weather chart ! - Copyright ORBIFLY December 2007 - Disclaimer

ORBIFLY MET'MAP TEAM :

Programming & Development : Alexandra Zaïnal
Concept & original design : Baudouin d'Aumeries
Assistance for programming : Marc-Olivier Méhu
Technical & hardware support : Manuel Goepfert

Contact : metmap@orbifly.com




SOURCES & CREDITS :

   NOAA